sensor_id;sensor_type;location;lat;lon;timestamp;P1;durP1;ratioP1;P2;durP2;ratioP2
31386;SDS011;69978;50.096;8.448;2024-03-02T00:00:18;4.88;;;1.77;;
31386;SDS011;69978;50.096;8.448;2024-03-02T00:02:46;6.82;;;1.95;;
31386;SDS011;69978;50.096;8.448;2024-03-02T00:05:14;5.80;;;2.10;;
31386;SDS011;69978;50.096;8.448;2024-03-02T00:07:42;4.40;;;1.80;;
31386;SDS011;69978;50.096;8.448;2024-03-02T00:10:10;6.60;;;2.25;;
31386;SDS011;69978;50.096;8.448;2024-03-02T00:12:37;3.80;;;1.90;;
31386;SDS011;69978;50.096;8.448;2024-03-02T00:15:16;5.40;;;1.70;;
31386;SDS011;69978;50.096;8.448;2024-03-02T00:17:55;5.38;;;1.90;;
31386;SDS011;69978;50.096;8.448;2024-03-02T00:20:23;5.07;;;1.80;;
31386;SDS011;69978;50.096;8.448;2024-03-02T00:22:52;6.47;;;2.00;;
31386;SDS011;69978;50.096;8.448;2024-03-02T00:25:23;5.60;;;2.30;;
31386;SDS011;69978;50.096;8.448;2024-03-02T00:27:49;5.40;;;2.35;;
31386;SDS011;69978;50.096;8.448;2024-03-02T00:33:08;7.30;;;2.10;;
31386;SDS011;69978;50.096;8.448;2024-03-02T00:35:35;5.20;;;2.00;;
31386;SDS011;69978;50.096;8.448;2024-03-02T00:38:04;6.60;;;2.58;;
31386;SDS011;69978;50.096;8.448;2024-03-02T00:40:31;6.88;;;2.08;;
31386;SDS011;69978;50.096;8.448;2024-03-02T00:42:56;4.93;;;2.08;;
31386;SDS011;69978;50.096;8.448;2024-03-02T00:45:22;7.38;;;2.17;;
31386;SDS011;69978;50.096;8.448;2024-03-02T00:47:49;5.20;;;2.05;;
31386;SDS011;69978;50.096;8.448;2024-03-02T00:50:15;8.02;;;2.10;;
31386;SDS011;69978;50.096;8.448;2024-03-02T00:52:41;4.85;;;2.28;;
31386;SDS011;69978;50.096;8.448;2024-03-02T00:55:07;6.38;;;2.38;;
31386;SDS011;69978;50.096;8.448;2024-03-02T00:57:33;10.05;;;2.47;;
31386;SDS011;69978;50.096;8.448;2024-03-02T01:00:00;7.45;;;2.38;;
31386;SDS011;69978;50.096;8.448;2024-03-02T01:02:25;6.65;;;2.60;;
31386;SDS011;69978;50.096;8.448;2024-03-02T01:04:51;6.57;;;2.25;;
31386;SDS011;69978;50.096;8.448;2024-03-02T01:07:17;4.82;;;2.22;;
31386;SDS011;69978;50.096;8.448;2024-03-02T01:09:43;5.78;;;2.30;;
31386;SDS011;69978;50.096;8.448;2024-03-02T01:12:08;8.55;;;2.83;;
31386;SDS011;69978;50.096;8.448;2024-03-02T01:14:34;6.13;;;2.40;;
31386;SDS011;69978;50.096;8.448;2024-03-02T01:17:00;8.98;;;2.53;;
31386;SDS011;69978;50.096;8.448;2024-03-02T01:19:28;6.05;;;2.75;;
31386;SDS011;69978;50.096;8.448;2024-03-02T01:21:54;5.90;;;2.40;;
31386;SDS011;69978;50.096;8.448;2024-03-02T01:24:19;7.47;;;2.65;;
31386;SDS011;69978;50.096;8.448;2024-03-02T01:26:45;6.47;;;2.65;;
31386;SDS011;69978;50.096;8.448;2024-03-02T01:29:10;8.48;;;2.53;;
31386;SDS011;69978;50.096;8.448;2024-03-02T01:31:36;6.53;;;2.58;;
31386;SDS011;69978;50.096;8.448;2024-03-02T01:34:02;8.27;;;2.65;;
31386;SDS011;69978;50.096;8.448;2024-03-02T01:36:27;6.47;;;2.47;;
31386;SDS011;69978;50.096;8.448;2024-03-02T01:38:53;6.00;;;2.78;;
31386;SDS011;69978;50.096;8.448;2024-03-02T01:41:18;6.35;;;2.67;;
31386;SDS011;69978;50.096;8.448;2024-03-02T01:43:44;7.00;;;2.55;;
31386;SDS011;69978;50.096;8.448;2024-03-02T01:46:09;7.30;;;2.90;;
31386;SDS011;69978;50.096;8.448;2024-03-02T01:48:35;6.47;;;2.72;;
31386;SDS011;69978;50.096;8.448;2024-03-02T01:51:01;7.47;;;2.88;;
31386;SDS011;69978;50.096;8.448;2024-03-02T01:53:26;6.20;;;2.85;;
31386;SDS011;69978;50.096;8.448;2024-03-02T01:55:53;7.43;;;2.85;;
31386;SDS011;69978;50.096;8.448;2024-03-02T01:58:18;7.38;;;2.78;;
31386;SDS011;69978;50.096;8.448;2024-03-02T02:00:44;7.53;;;3.00;;
31386;SDS011;69978;50.096;8.448;2024-03-02T02:03:10;7.47;;;3.22;;
31386;SDS011;69978;50.096;8.448;2024-03-02T02:05:35;6.93;;;3.00;;
31386;SDS011;69978;50.096;8.448;2024-03-02T02:08:01;8.77;;;3.33;;
31386;SDS011;69978;50.096;8.448;2024-03-02T02:10:27;9.07;;;3.42;;
31386;SDS011;69978;50.096;8.448;2024-03-02T02:12:52;11.63;;;2.90;;
31386;SDS011;69978;50.096;8.448;2024-03-02T02:17:47;8.63;;;3.45;;
31386;SDS011;69978;50.096;8.448;2024-03-02T02:20:12;9.45;;;3.63;;
31386;SDS011;69978;50.096;8.448;2024-03-02T02:22:38;7.63;;;3.53;;
31386;SDS011;69978;50.096;8.448;2024-03-02T02:25:04;10.80;;;3.47;;
31386;SDS011;69978;50.096;8.448;2024-03-02T02:27:29;10.05;;;3.22;;
31386;SDS011;69978;50.096;8.448;2024-03-02T02:29:55;7.25;;;3.30;;
31386;SDS011;69978;50.096;8.448;2024-03-02T02:32:21;10.50;;;3.78;;
31386;SDS011;69978;50.096;8.448;2024-03-02T02:34:46;8.48;;;3.53;;
31386;SDS011;69978;50.096;8.448;2024-03-02T02:37:16;9.32;;;4.00;;
31386;SDS011;69978;50.096;8.448;2024-03-02T02:39:42;13.93;;;3.80;;
31386;SDS011;69978;50.096;8.448;2024-03-02T02:42:08;8.25;;;3.63;;
31386;SDS011;69978;50.096;8.448;2024-03-02T02:44:34;15.25;;;4.43;;
31386;SDS011;69978;50.096;8.448;2024-03-02T02:46:59;8.75;;;3.80;;
31386;SDS011;69978;50.096;8.448;2024-03-02T02:49:25;12.23;;;4.00;;
31386;SDS011;69978;50.096;8.448;2024-03-02T02:51:51;14.98;;;4.70;;
31386;SDS011;69978;50.096;8.448;2024-03-02T02:54:17;11.65;;;4.28;;
31386;SDS011;69978;50.096;8.448;2024-03-02T02:56:42;11.27;;;4.13;;
31386;SDS011;69978;50.096;8.448;2024-03-02T02:59:08;11.68;;;4.28;;
31386;SDS011;69978;50.096;8.448;2024-03-02T03:01:34;10.38;;;3.90;;
31386;SDS011;69978;50.096;8.448;2024-03-02T03:03:59;12.98;;;3.95;;
31386;SDS011;69978;50.096;8.448;2024-03-02T03:06:25;16.10;;;5.32;;
31386;SDS011;69978;50.096;8.448;2024-03-02T03:08:50;13.48;;;4.68;;
31386;SDS011;69978;50.096;8.448;2024-03-02T03:11:16;12.02;;;4.43;;
31386;SDS011;69978;50.096;8.448;2024-03-02T03:13:41;11.07;;;4.13;;
31386;SDS011;69978;50.096;8.448;2024-03-02T03:16:07;12.93;;;4.47;;
31386;SDS011;69978;50.096;8.448;2024-03-02T03:18:33;10.93;;;4.10;;
31386;SDS011;69978;50.096;8.448;2024-03-02T03:20:58;10.98;;;4.22;;
31386;SDS011;69978;50.096;8.448;2024-03-02T03:23:24;8.93;;;3.88;;
31386;SDS011;69978;50.096;8.448;2024-03-02T03:25:50;13.90;;;4.80;;
31386;SDS011;69978;50.096;8.448;2024-03-02T03:28:16;12.38;;;4.55;;
31386;SDS011;69978;50.096;8.448;2024-03-02T03:30:41;9.95;;;4.18;;
31386;SDS011;69978;50.096;8.448;2024-03-02T03:33:08;11.80;;;4.07;;
31386;SDS011;69978;50.096;8.448;2024-03-02T03:35:34;11.55;;;3.97;;
31386;SDS011;69978;50.096;8.448;2024-03-02T03:38:01;14.68;;;4.50;;
31386;SDS011;69978;50.096;8.448;2024-03-02T03:40:26;12.18;;;4.10;;
31386;SDS011;69978;50.096;8.448;2024-03-02T03:42:52;12.80;;;4.22;;
31386;SDS011;69978;50.096;8.448;2024-03-02T03:45:18;12.63;;;4.38;;
31386;SDS011;69978;50.096;8.448;2024-03-02T03:47:44;12.40;;;4.35;;
31386;SDS011;69978;50.096;8.448;2024-03-02T03:50:09;10.80;;;4.30;;
31386;SDS011;69978;50.096;8.448;2024-03-02T03:52:35;13.32;;;4.70;;
31386;SDS011;69978;50.096;8.448;2024-03-02T03:55:01;11.50;;;4.40;;
31386;SDS011;69978;50.096;8.448;2024-03-02T03:57:27;18.20;;;4.93;;
31386;SDS011;69978;50.096;8.448;2024-03-02T03:59:53;12.05;;;4.90;;
31386;SDS011;69978;50.096;8.448;2024-03-02T04:02:18;10.65;;;3.85;;
31386;SDS011;69978;50.096;8.448;2024-03-02T04:04:44;11.90;;;4.30;;
31386;SDS011;69978;50.096;8.448;2024-03-02T04:07:10;13.07;;;4.47;;
31386;SDS011;69978;50.096;8.448;2024-03-02T04:09:36;11.45;;;3.80;;
31386;SDS011;69978;50.096;8.448;2024-03-02T04:12:02;8.90;;;3.30;;
31386;SDS011;69978;50.096;8.448;2024-03-02T04:14:27;13.13;;;4.35;;
31386;SDS011;69978;50.096;8.448;2024-03-02T04:16:53;10.13;;;3.65;;
31386;SDS011;69978;50.096;8.448;2024-03-02T04:19:18;10.55;;;4.13;;
31386;SDS011;69978;50.096;8.448;2024-03-02T04:21:44;10.80;;;4.30;;
31386;SDS011;69978;50.096;8.448;2024-03-02T04:24:10;12.23;;;4.53;;
31386;SDS011;69978;50.096;8.448;2024-03-02T04:26:35;11.38;;;4.38;;
31386;SDS011;69978;50.096;8.448;2024-03-02T04:29:01;14.25;;;4.28;;
31386;SDS011;69978;50.096;8.448;2024-03-02T04:31:27;10.65;;;4.40;;
31386;SDS011;69978;50.096;8.448;2024-03-02T04:33:52;11.70;;;4.25;;
31386;SDS011;69978;50.096;8.448;2024-03-02T04:36:19;12.32;;;4.60;;
31386;SDS011;69978;50.096;8.448;2024-03-02T04:38:44;13.85;;;4.05;;
31386;SDS011;69978;50.096;8.448;2024-03-02T04:41:10;11.30;;;4.43;;
31386;SDS011;69978;50.096;8.448;2024-03-02T04:43:35;11.52;;;4.43;;
31386;SDS011;69978;50.096;8.448;2024-03-02T04:46:01;11.70;;;4.68;;
31386;SDS011;69978;50.096;8.448;2024-03-02T04:48:27;13.35;;;4.25;;
31386;SDS011;69978;50.096;8.448;2024-03-02T04:50:52;14.48;;;4.50;;
31386;SDS011;69978;50.096;8.448;2024-03-02T04:53:18;11.05;;;4.47;;
31386;SDS011;69978;50.096;8.448;2024-03-02T04:55:43;15.00;;;4.70;;
31386;SDS011;69978;50.096;8.448;2024-03-02T04:58:09;11.75;;;4.40;;
31386;SDS011;69978;50.096;8.448;2024-03-02T05:00:35;10.55;;;4.22;;
31386;SDS011;69978;50.096;8.448;2024-03-02T05:03:01;13.65;;;4.90;;
31386;SDS011;69978;50.096;8.448;2024-03-02T05:05:28;21.38;;;8.73;;
31386;SDS011;69978;50.096;8.448;2024-03-02T05:07:53;21.30;;;7.60;;
31386;SDS011;69978;50.096;8.448;2024-03-02T05:10:19;17.88;;;6.43;;
31386;SDS011;69978;50.096;8.448;2024-03-02T05:12:45;17.63;;;6.43;;
31386;SDS011;69978;50.096;8.448;2024-03-02T05:15:11;22.30;;;6.97;;
31386;SDS011;69978;50.096;8.448;2024-03-02T05:17:38;18.20;;;5.82;;
31386;SDS011;69978;50.096;8.448;2024-03-02T05:20:08;20.55;;;6.95;;
31386;SDS011;69978;50.096;8.448;2024-03-02T05:22:34;24.48;;;7.90;;
31386;SDS011;69978;50.096;8.448;2024-03-02T05:25:00;26.00;;;8.63;;
31386;SDS011;69978;50.096;8.448;2024-03-02T05:27:29;26.15;;;8.68;;
31386;SDS011;69978;50.096;8.448;2024-03-02T05:29:55;19.23;;;7.25;;
31386;SDS011;69978;50.096;8.448;2024-03-02T05:32:21;16.80;;;6.65;;
31386;SDS011;69978;50.096;8.448;2024-03-02T05:34:46;19.60;;;6.90;;
31386;SDS011;69978;50.096;8.448;2024-03-02T05:37:12;18.95;;;6.80;;
31386;SDS011;69978;50.096;8.448;2024-03-02T05:39:38;19.05;;;7.22;;
31386;SDS011;69978;50.096;8.448;2024-03-02T05:42:03;20.83;;;7.20;;
31386;SDS011;69978;50.096;8.448;2024-03-02T05:44:29;19.80;;;7.30;;
31386;SDS011;69978;50.096;8.448;2024-03-02T05:46:55;19.73;;;7.22;;
31386;SDS011;69978;50.096;8.448;2024-03-02T05:49:21;22.42;;;7.60;;
31386;SDS011;69978;50.096;8.448;2024-03-02T05:51:46;19.50;;;7.25;;
31386;SDS011;69978;50.096;8.448;2024-03-02T05:54:12;21.38;;;7.85;;
31386;SDS011;69978;50.096;8.448;2024-03-02T05:56:38;23.85;;;7.75;;
31386;SDS011;69978;50.096;8.448;2024-03-02T05:59:03;31.05;;;8.57;;
31386;SDS011;69978;50.096;8.448;2024-03-02T06:01:45;20.77;;;8.10;;
31386;SDS011;69978;50.096;8.448;2024-03-02T06:04:11;25.83;;;7.68;;
31386;SDS011;69978;50.096;8.448;2024-03-02T06:06:37;19.10;;;6.72;;
31386;SDS011;69978;50.096;8.448;2024-03-02T06:09:04;19.65;;;7.32;;
31386;SDS011;69978;50.096;8.448;2024-03-02T06:11:36;17.45;;;7.10;;
31386;SDS011;69978;50.096;8.448;2024-03-02T06:14:02;17.25;;;6.55;;
31386;SDS011;69978;50.096;8.448;2024-03-02T06:16:31;21.83;;;7.72;;
31386;SDS011;69978;50.096;8.448;2024-03-02T06:18:57;23.67;;;7.55;;
31386;SDS011;69978;50.096;8.448;2024-03-02T06:21:23;19.80;;;6.97;;
31386;SDS011;69978;50.096;8.448;2024-03-02T06:23:49;20.38;;;7.47;;
31386;SDS011;69978;50.096;8.448;2024-03-02T06:26:15;20.63;;;7.00;;
31386;SDS011;69978;50.096;8.448;2024-03-02T06:28:41;20.98;;;7.10;;
31386;SDS011;69978;50.096;8.448;2024-03-02T06:31:06;20.90;;;7.53;;
31386;SDS011;69978;50.096;8.448;2024-03-02T06:33:32;21.00;;;7.18;;
31386;SDS011;69978;50.096;8.448;2024-03-02T06:35:57;21.50;;;8.18;;
31386;SDS011;69978;50.096;8.448;2024-03-02T06:38:23;20.73;;;7.45;;
31386;SDS011;69978;50.096;8.448;2024-03-02T06:40:48;21.90;;;7.50;;
31386;SDS011;69978;50.096;8.448;2024-03-02T06:43:14;20.90;;;7.32;;
31386;SDS011;69978;50.096;8.448;2024-03-02T06:45:40;21.15;;;7.72;;
31386;SDS011;69978;50.096;8.448;2024-03-02T06:48:06;21.90;;;7.35;;
31386;SDS011;69978;50.096;8.448;2024-03-02T06:53:06;19.05;;;6.90;;
31386;SDS011;69978;50.096;8.448;2024-03-02T06:55:31;19.23;;;7.07;;
31386;SDS011;69978;50.096;8.448;2024-03-02T06:57:57;18.92;;;6.82;;
31386;SDS011;69978;50.096;8.448;2024-03-02T07:00:22;20.75;;;7.22;;
31386;SDS011;69978;50.096;8.448;2024-03-02T07:02:49;22.20;;;7.40;;
31386;SDS011;69978;50.096;8.448;2024-03-02T07:05:14;19.38;;;6.70;;
31386;SDS011;69978;50.096;8.448;2024-03-02T07:07:40;17.60;;;6.40;;
31386;SDS011;69978;50.096;8.448;2024-03-02T07:10:06;17.90;;;7.22;;
31386;SDS011;69978;50.096;8.448;2024-03-02T07:12:35;18.65;;;6.63;;
31386;SDS011;69978;50.096;8.448;2024-03-02T07:15:01;18.75;;;6.93;;
31386;SDS011;69978;50.096;8.448;2024-03-02T07:17:30;19.90;;;6.97;;
31386;SDS011;69978;50.096;8.448;2024-03-02T07:19:56;22.00;;;7.75;;
31386;SDS011;69978;50.096;8.448;2024-03-02T07:22:22;21.20;;;7.63;;
31386;SDS011;69978;50.096;8.448;2024-03-02T07:24:48;19.85;;;6.95;;
31386;SDS011;69978;50.096;8.448;2024-03-02T07:27:14;18.95;;;7.45;;
31386;SDS011;69978;50.096;8.448;2024-03-02T07:29:40;25.17;;;7.75;;
31386;SDS011;69978;50.096;8.448;2024-03-02T07:32:06;20.10;;;7.75;;
31386;SDS011;69978;50.096;8.448;2024-03-02T07:34:32;20.02;;;7.15;;
31386;SDS011;69978;50.096;8.448;2024-03-02T07:36:58;25.38;;;8.23;;
31386;SDS011;69978;50.096;8.448;2024-03-02T07:39:24;21.90;;;7.78;;
31386;SDS011;69978;50.096;8.448;2024-03-02T07:41:50;17.80;;;7.22;;
31386;SDS011;69978;50.096;8.448;2024-03-02T07:44:16;20.08;;;7.65;;
31386;SDS011;69978;50.096;8.448;2024-03-02T07:46:44;22.17;;;8.23;;
31386;SDS011;69978;50.096;8.448;2024-03-02T07:49:16;21.50;;;7.97;;
31386;SDS011;69978;50.096;8.448;2024-03-02T07:51:45;22.17;;;7.80;;
31386;SDS011;69978;50.096;8.448;2024-03-02T07:54:11;20.85;;;7.32;;
31386;SDS011;69978;50.096;8.448;2024-03-02T07:56:36;21.15;;;7.93;;
31386;SDS011;69978;50.096;8.448;2024-03-02T07:59:03;19.80;;;8.07;;
31386;SDS011;69978;50.096;8.448;2024-03-02T08:01:38;20.63;;;7.88;;
31386;SDS011;69978;50.096;8.448;2024-03-02T08:04:03;21.58;;;7.60;;
31386;SDS011;69978;50.096;8.448;2024-03-02T08:06:29;23.00;;;8.18;;
31386;SDS011;69978;50.096;8.448;2024-03-02T08:08:58;20.10;;;7.95;;
31386;SDS011;69978;50.096;8.448;2024-03-02T08:11:25;19.23;;;7.25;;
31386;SDS011;69978;50.096;8.448;2024-03-02T08:13:52;24.92;;;8.10;;
31386;SDS011;69978;50.096;8.448;2024-03-02T08:16:19;20.05;;;7.40;;
31386;SDS011;69978;50.096;8.448;2024-03-02T08:18:47;24.98;;;8.30;;
31386;SDS011;69978;50.096;8.448;2024-03-02T08:21:13;21.73;;;7.82;;
31386;SDS011;69978;50.096;8.448;2024-03-02T08:23:38;20.77;;;7.88;;
31386;SDS011;69978;50.096;8.448;2024-03-02T08:26:06;21.38;;;8.15;;
31386;SDS011;69978;50.096;8.448;2024-03-02T08:28:32;19.58;;;8.10;;
31386;SDS011;69978;50.096;8.448;2024-03-02T08:30:58;23.15;;;8.07;;
31386;SDS011;69978;50.096;8.448;2024-03-02T08:33:23;20.60;;;7.88;;
31386;SDS011;69978;50.096;8.448;2024-03-02T08:35:49;21.80;;;7.60;;
31386;SDS011;69978;50.096;8.448;2024-03-02T08:38:15;18.98;;;7.63;;
31386;SDS011;69978;50.096;8.448;2024-03-02T08:40:40;26.15;;;8.55;;
31386;SDS011;69978;50.096;8.448;2024-03-02T08:43:06;20.65;;;7.68;;
31386;SDS011;69978;50.096;8.448;2024-03-02T08:45:32;19.58;;;8.27;;
31386;SDS011;69978;50.096;8.448;2024-03-02T08:47:59;22.45;;;7.97;;
31386;SDS011;69978;50.096;8.448;2024-03-02T08:50:24;20.73;;;8.57;;
31386;SDS011;69978;50.096;8.448;2024-03-02T08:52:50;18.75;;;7.60;;
31386;SDS011;69978;50.096;8.448;2024-03-02T08:55:15;23.50;;;8.43;;
31386;SDS011;69978;50.096;8.448;2024-03-02T08:57:41;22.38;;;8.15;;
31386;SDS011;69978;50.096;8.448;2024-03-02T09:00:07;20.40;;;8.07;;
31386;SDS011;69978;50.096;8.448;2024-03-02T09:02:33;18.40;;;7.50;;
31386;SDS011;69978;50.096;8.448;2024-03-02T09:04:59;19.73;;;7.28;;
31386;SDS011;69978;50.096;8.448;2024-03-02T09:07:25;21.48;;;7.40;;
31386;SDS011;69978;50.096;8.448;2024-03-02T09:09:50;21.98;;;7.22;;
31386;SDS011;69978;50.096;8.448;2024-03-02T09:12:17;20.55;;;7.72;;
31386;SDS011;69978;50.096;8.448;2024-03-02T09:14:43;19.65;;;7.60;;
31386;SDS011;69978;50.096;8.448;2024-03-02T09:17:09;17.75;;;6.97;;
31386;SDS011;69978;50.096;8.448;2024-03-02T09:19:36;16.75;;;6.93;;
31386;SDS011;69978;50.096;8.448;2024-03-02T09:22:02;21.15;;;8.07;;
31386;SDS011;69978;50.096;8.448;2024-03-02T09:24:30;24.90;;;9.27;;
31386;SDS011;69978;50.096;8.448;2024-03-02T09:26:56;27.65;;;8.80;;
31386;SDS011;69978;50.096;8.448;2024-03-02T09:29:22;29.58;;;9.27;;
31386;SDS011;69978;50.096;8.448;2024-03-02T09:31:47;21.92;;;8.70;;
31386;SDS011;69978;50.096;8.448;2024-03-02T09:34:14;26.30;;;9.10;;
31386;SDS011;69978;50.096;8.448;2024-03-02T09:36:40;16.65;;;6.85;;
31386;SDS011;69978;50.096;8.448;2024-03-02T09:39:09;21.60;;;7.38;;
31386;SDS011;69978;50.096;8.448;2024-03-02T09:41:36;20.88;;;7.97;;
31386;SDS011;69978;50.096;8.448;2024-03-02T09:44:02;16.00;;;7.00;;
31386;SDS011;69978;50.096;8.448;2024-03-02T09:46:28;13.15;;;5.70;;
31386;SDS011;69978;50.096;8.448;2024-03-02T09:48:54;16.55;;;6.20;;
31386;SDS011;69978;50.096;8.448;2024-03-02T09:51:19;11.80;;;5.60;;
31386;SDS011;69978;50.096;8.448;2024-03-02T09:53:45;11.77;;;5.20;;
31386;SDS011;69978;50.096;8.448;2024-03-02T09:56:12;13.65;;;5.57;;
31386;SDS011;69978;50.096;8.448;2024-03-02T09:58:38;12.73;;;5.10;;
31386;SDS011;69978;50.096;8.448;2024-03-02T10:01:08;12.00;;;5.10;;
31386;SDS011;69978;50.096;8.448;2024-03-02T10:03:35;13.25;;;5.38;;
31386;SDS011;69978;50.096;8.448;2024-03-02T10:08:50;13.30;;;5.40;;
31386;SDS011;69978;50.096;8.448;2024-03-02T10:14:12;13.18;;;5.45;;
31386;SDS011;69978;50.096;8.448;2024-03-02T10:16:42;11.88;;;5.10;;
31386;SDS011;69978;50.096;8.448;2024-03-02T10:21:48;13.25;;;5.78;;
31386;SDS011;69978;50.096;8.448;2024-03-02T10:24:15;16.17;;;5.45;;
31386;SDS011;69978;50.096;8.448;2024-03-02T10:26:41;13.82;;;5.32;;
31386;SDS011;69978;50.096;8.448;2024-03-02T10:29:09;15.35;;;6.00;;
31386;SDS011;69978;50.096;8.448;2024-03-02T10:31:36;14.90;;;5.68;;
31386;SDS011;69978;50.096;8.448;2024-03-02T10:34:03;14.40;;;5.03;;
31386;SDS011;69978;50.096;8.448;2024-03-02T10:36:28;17.50;;;6.20;;
31386;SDS011;69978;50.096;8.448;2024-03-02T10:38:55;18.80;;;5.43;;
31386;SDS011;69978;50.096;8.448;2024-03-02T10:41:23;12.65;;;5.38;;
31386;SDS011;69978;50.096;8.448;2024-03-02T10:43:51;13.40;;;5.60;;
31386;SDS011;69978;50.096;8.448;2024-03-02T10:46:24;17.05;;;5.18;;
31386;SDS011;69978;50.096;8.448;2024-03-02T10:48:53;15.20;;;5.30;;
31386;SDS011;69978;50.096;8.448;2024-03-02T10:51:18;13.73;;;5.03;;
31386;SDS011;69978;50.096;8.448;2024-03-02T10:53:44;21.77;;;4.95;;
31386;SDS011;69978;50.096;8.448;2024-03-02T10:56:09;12.23;;;5.07;;
31386;SDS011;69978;50.096;8.448;2024-03-02T10:58:47;11.57;;;4.88;;
31386;SDS011;69978;50.096;8.448;2024-03-02T11:01:16;13.02;;;5.65;;
31386;SDS011;69978;50.096;8.448;2024-03-02T11:03:42;12.18;;;5.00;;
31386;SDS011;69978;50.096;8.448;2024-03-02T11:06:09;13.80;;;5.45;;
31386;SDS011;69978;50.096;8.448;2024-03-02T11:08:36;14.23;;;5.05;;
31386;SDS011;69978;50.096;8.448;2024-03-02T11:11:12;13.25;;;4.78;;
31386;SDS011;69978;50.096;8.448;2024-03-02T11:13:41;10.43;;;4.53;;
31386;SDS011;69978;50.096;8.448;2024-03-02T11:16:12;10.45;;;4.80;;
31386;SDS011;69978;50.096;8.448;2024-03-02T11:19:02;12.25;;;4.47;;
31386;SDS011;69978;50.096;8.448;2024-03-02T11:21:39;14.25;;;5.03;;
31386;SDS011;69978;50.096;8.448;2024-03-02T11:26:46;11.55;;;4.50;;
31386;SDS011;69978;50.096;8.448;2024-03-02T11:29:57;12.15;;;4.75;;
31386;SDS011;69978;50.096;8.448;2024-03-02T11:32:01;10.23;;;4.95;;
31386;SDS011;69978;50.096;8.448;2024-03-02T11:34:31;12.75;;;4.90;;
31386;SDS011;69978;50.096;8.448;2024-03-02T11:37:01;15.38;;;4.95;;
31386;SDS011;69978;50.096;8.448;2024-03-02T11:39:30;12.75;;;4.10;;
31386;SDS011;69978;50.096;8.448;2024-03-02T11:41:56;10.77;;;4.40;;
31386;SDS011;69978;50.096;8.448;2024-03-02T11:44:28;10.13;;;4.50;;
31386;SDS011;69978;50.096;8.448;2024-03-02T11:46:58;11.38;;;4.35;;
31386;SDS011;69978;50.096;8.448;2024-03-02T11:49:40;10.18;;;4.32;;
31386;SDS011;69978;50.096;8.448;2024-03-02T11:52:19;9.77;;;4.05;;
31386;SDS011;69978;50.096;8.448;2024-03-02T11:54:47;11.75;;;4.47;;
31386;SDS011;69978;50.096;8.448;2024-03-02T11:57:17;8.98;;;4.18;;
31386;SDS011;69978;50.096;8.448;2024-03-02T11:59:47;10.90;;;3.75;;
31386;SDS011;69978;50.096;8.448;2024-03-02T12:02:23;10.77;;;4.00;;
31386;SDS011;69978;50.096;8.448;2024-03-02T12:04:49;10.27;;;3.78;;
31386;SDS011;69978;50.096;8.448;2024-03-02T12:07:22;8.85;;;3.92;;
31386;SDS011;69978;50.096;8.448;2024-03-02T12:10:01;11.10;;;3.75;;
31386;SDS011;69978;50.096;8.448;2024-03-02T12:12:28;9.55;;;3.47;;
31386;SDS011;69978;50.096;8.448;2024-03-02T12:14:53;8.85;;;3.60;;
31386;SDS011;69978;50.096;8.448;2024-03-02T12:17:20;8.07;;;3.70;;
31386;SDS011;69978;50.096;8.448;2024-03-02T12:19:47;9.80;;;4.05;;
31386;SDS011;69978;50.096;8.448;2024-03-02T12:22:13;8.20;;;3.38;;
31386;SDS011;69978;50.096;8.448;2024-03-02T12:24:40;9.73;;;3.30;;
31386;SDS011;69978;50.096;8.448;2024-03-02T12:27:06;11.90;;;3.35;;
31386;SDS011;69978;50.096;8.448;2024-03-02T12:29:32;7.28;;;3.38;;
31386;SDS011;69978;50.096;8.448;2024-03-02T12:31:59;9.77;;;3.40;;
31386;SDS011;69978;50.096;8.448;2024-03-02T12:34:27;11.10;;;3.42;;
31386;SDS011;69978;50.096;8.448;2024-03-02T12:36:52;7.97;;;3.28;;
31386;SDS011;69978;50.096;8.448;2024-03-02T12:39:18;9.13;;;3.28;;
31386;SDS011;69978;50.096;8.448;2024-03-02T12:41:48;9.50;;;3.42;;
31386;SDS011;69978;50.096;8.448;2024-03-02T12:44:15;9.82;;;3.58;;
31386;SDS011;69978;50.096;8.448;2024-03-02T12:46:44;10.18;;;3.17;;
31386;SDS011;69978;50.096;8.448;2024-03-02T12:49:12;8.35;;;2.90;;
31386;SDS011;69978;50.096;8.448;2024-03-02T12:51:40;6.05;;;2.75;;
31386;SDS011;69978;50.096;8.448;2024-03-02T12:54:07;5.32;;;2.65;;
31386;SDS011;69978;50.096;8.448;2024-03-02T12:56:34;7.25;;;2.47;;
31386;SDS011;69978;50.096;8.448;2024-03-02T12:59:01;5.53;;;2.53;;
31386;SDS011;69978;50.096;8.448;2024-03-02T13:01:26;5.40;;;2.28;;
31386;SDS011;69978;50.096;8.448;2024-03-02T13:03:52;5.15;;;2.15;;
31386;SDS011;69978;50.096;8.448;2024-03-02T13:06:20;7.13;;;2.05;;
31386;SDS011;69978;50.096;8.448;2024-03-02T13:08:46;5.72;;;2.30;;
31386;SDS011;69978;50.096;8.448;2024-03-02T13:11:12;6.65;;;2.55;;
31386;SDS011;69978;50.096;8.448;2024-03-02T13:13:38;6.35;;;2.58;;
31386;SDS011;69978;50.096;8.448;2024-03-02T13:16:11;4.70;;;2.22;;
31386;SDS011;69978;50.096;8.448;2024-03-02T13:18:40;3.85;;;1.98;;
31386;SDS011;69978;50.096;8.448;2024-03-02T13:21:06;6.72;;;2.53;;
31386;SDS011;69978;50.096;8.448;2024-03-02T13:23:33;4.75;;;1.90;;
31386;SDS011;69978;50.096;8.448;2024-03-02T13:25:58;5.57;;;2.20;;
31386;SDS011;69978;50.096;8.448;2024-03-02T13:28:24;5.38;;;2.03;;
31386;SDS011;69978;50.096;8.448;2024-03-02T13:30:50;5.13;;;1.73;;
31386;SDS011;69978;50.096;8.448;2024-03-02T13:33:16;5.13;;;2.17;;
31386;SDS011;69978;50.096;8.448;2024-03-02T13:35:47;7.30;;;2.20;;
31386;SDS011;69978;50.096;8.448;2024-03-02T13:38:19;7.80;;;2.30;;
31386;SDS011;69978;50.096;8.448;2024-03-02T13:40:45;5.45;;;2.50;;
31386;SDS011;69978;50.096;8.448;2024-03-02T13:43:12;4.75;;;2.53;;
31386;SDS011;69978;50.096;8.448;2024-03-02T13:45:39;8.93;;;2.45;;
31386;SDS011;69978;50.096;8.448;2024-03-02T13:48:04;5.05;;;2.38;;
31386;SDS011;69978;50.096;8.448;2024-03-02T13:50:30;6.03;;;2.47;;
31386;SDS011;69978;50.096;8.448;2024-03-02T13:52:57;4.88;;;2.40;;
31386;SDS011;69978;50.096;8.448;2024-03-02T13:55:22;3.70;;;2.10;;
31386;SDS011;69978;50.096;8.448;2024-03-02T13:57:48;6.18;;;2.58;;
31386;SDS011;69978;50.096;8.448;2024-03-02T14:00:15;5.88;;;2.50;;
31386;SDS011;69978;50.096;8.448;2024-03-02T14:02:42;4.38;;;2.17;;
31386;SDS011;69978;50.096;8.448;2024-03-02T14:05:08;4.28;;;2.00;;
31386;SDS011;69978;50.096;8.448;2024-03-02T14:07:37;5.57;;;2.35;;
31386;SDS011;69978;50.096;8.448;2024-03-02T14:10:03;4.22;;;2.15;;
31386;SDS011;69978;50.096;8.448;2024-03-02T14:12:29;5.05;;;2.38;;
31386;SDS011;69978;50.096;8.448;2024-03-02T14:14:55;5.53;;;2.38;;
31386;SDS011;69978;50.096;8.448;2024-03-02T14:17:23;5.35;;;2.28;;
31386;SDS011;69978;50.096;8.448;2024-03-02T14:19:49;5.03;;;2.50;;
31386;SDS011;69978;50.096;8.448;2024-03-02T14:22:15;5.97;;;2.22;;
31386;SDS011;69978;50.096;8.448;2024-03-02T14:24:42;5.45;;;1.98;;
31386;SDS011;69978;50.096;8.448;2024-03-02T14:27:08;3.78;;;1.85;;
31386;SDS011;69978;50.096;8.448;2024-03-02T14:29:34;4.65;;;1.70;;
31386;SDS011;69978;50.096;8.448;2024-03-02T14:32:02;3.88;;;2.10;;
31386;SDS011;69978;50.096;8.448;2024-03-02T14:34:28;3.45;;;1.60;;
31386;SDS011;69978;50.096;8.448;2024-03-02T14:36:54;5.25;;;1.92;;
31386;SDS011;69978;50.096;8.448;2024-03-02T14:39:20;7.05;;;1.77;;
31386;SDS011;69978;50.096;8.448;2024-03-02T14:41:46;4.00;;;1.58;;
31386;SDS011;69978;50.096;8.448;2024-03-02T14:44:12;3.75;;;1.70;;
31386;SDS011;69978;50.096;8.448;2024-03-02T14:46:37;3.72;;;1.77;;
31386;SDS011;69978;50.096;8.448;2024-03-02T14:49:03;5.18;;;1.60;;
31386;SDS011;69978;50.096;8.448;2024-03-02T14:51:29;3.90;;;1.58;;
31386;SDS011;69978;50.096;8.448;2024-03-02T14:53:55;4.88;;;1.80;;